createdAt,value
2023-03-20T00:00:38.226Z,0.52
2023-03-20T00:05:39.636Z,0.70
2023-03-20T00:10:42.218Z,0.50
2023-03-20T00:15:43.975Z,0.50
2023-03-20T00:20:46.291Z,0.70
2023-03-20T00:25:47.716Z,0.60
2023-03-20T00:30:49.087Z,0.80
2023-03-20T00:35:50.467Z,0.73
2023-03-20T00:40:52.430Z,0.50
2023-03-20T00:45:53.808Z,0.63
2023-03-20T00:50:55.501Z,0.50
2023-03-20T00:55:56.882Z,0.50
2023-03-20T01:00:58.312Z,0.50
2023-03-20T01:05:59.797Z,0.30
2023-03-20T01:11:01.241Z,0.40
2023-03-20T01:16:02.708Z,0.30
2023-03-20T01:21:04.267Z,0.45
2023-03-20T01:26:18.407Z,0.30
2023-03-20T01:31:19.819Z,0.45
2023-03-20T01:36:22.358Z,0.43
2023-03-20T01:41:25.189Z,0.40
2023-03-20T01:46:28.407Z,0.40
2023-03-20T01:51:32.764Z,0.43
2023-03-20T01:56:38.163Z,0.50
2023-03-20T02:01:39.820Z,0.50
2023-03-20T02:06:41.692Z,0.50
2023-03-20T02:11:43.064Z,0.50
2023-03-20T02:16:44.474Z,0.63
2023-03-20T02:22:13.898Z,0.80
2023-03-20T02:27:22.503Z,0.70
2023-03-20T02:32:48.169Z,0.68
2023-03-20T02:38:08.767Z,0.73
2023-03-20T02:43:47.033Z,0.68
2023-03-20T02:49:15.511Z,0.60
2023-03-20T02:54:38.703Z,0.68
2023-03-20T02:59:41.725Z,0.70
2023-03-20T03:04:54.905Z,0.70
2023-03-20T03:10:27.184Z,0.60
2023-03-20T03:15:34.518Z,0.95
2023-03-20T03:20:39.377Z,0.80
2023-03-20T03:25:40.795Z,0.80
2023-03-20T03:30:42.183Z,0.77
2023-03-20T03:35:43.681Z,0.82
2023-03-20T03:41:23.852Z,0.80
2023-03-20T03:46:45.697Z,0.90
2023-03-20T03:51:49.216Z,0.80
2023-03-20T03:56:50.595Z,0.80
2023-03-20T04:01:52.377Z,0.70
2023-03-20T04:06:53.793Z,0.90
2023-03-20T04:11:55.200Z,0.90
2023-03-20T04:16:56.585Z,0.75
2023-03-20T04:21:57.971Z,0.65
2023-03-20T04:26:59.379Z,1.10
2023-03-20T04:32:00.782Z,0.60
2023-03-20T04:37:02.180Z,0.70
2023-03-20T04:42:04.303Z,0.73
2023-03-20T04:47:06.445Z,0.57
2023-03-20T04:52:07.955Z,0.55
2023-03-20T04:57:09.329Z,0.60
2023-03-20T05:02:14.735Z,0.30
2023-03-20T05:07:16.129Z,0.30
2023-03-20T05:12:17.528Z,0.22
2023-03-20T05:17:19.618Z,0.20
2023-03-20T05:22:21.001Z,0.20
2023-03-20T05:27:22.396Z,0.30
2023-03-20T05:32:23.807Z,0.32
2023-03-20T05:37:25.197Z,0.30
2023-03-20T05:42:26.576Z,0.28
2023-03-20T05:47:27.946Z,0.20
2023-03-20T05:52:29.321Z,0.28
2023-03-20T05:57:30.994Z,0.20
2023-03-20T06:02:32.424Z,0.10
2023-03-20T06:07:33.811Z,0.20
2023-03-20T06:12:35.466Z,0.20
2023-03-20T06:17:37.913Z,0.20
2023-03-20T06:22:39.325Z,0.20
2023-03-20T06:27:40.733Z,0.20
2023-03-20T06:32:42.447Z,0.28
2023-03-20T06:37:43.935Z,0.20
2023-03-20T06:42:45.361Z,0.10
2023-03-20T06:47:47.202Z,0.20
2023-03-20T06:52:48.592Z,0.10
2023-03-20T06:57:50.060Z,0.10
2023-03-20T07:02:51.492Z,0.20
2023-03-20T07:07:52.937Z,0.35
2023-03-20T07:12:54.874Z,0.10
2023-03-20T07:17:56.400Z,0.10
2023-03-20T07:22:57.784Z,0.10
2023-03-20T07:27:59.259Z,0.10
2023-03-20T07:33:00.715Z,0.20
2023-03-20T07:38:02.328Z,0.17
2023-03-20T07:43:03.718Z,0.13
2023-03-20T07:48:05.526Z,0.20
2023-03-20T07:53:07.762Z,0.10
2023-03-20T07:58:09.174Z,0.20
2023-03-20T08:03:10.844Z,0.10
2023-03-20T08:08:12.355Z,0.10
2023-03-20T08:13:13.906Z,0.20
2023-03-20T08:18:15.337Z,0.22
2023-03-20T08:23:20.082Z,0.17
2023-03-20T08:28:24.027Z,0.13
2023-03-20T08:33:28.224Z,0.10
2023-03-20T08:38:29.595Z,0.20
2023-03-20T08:43:31.369Z,0.20
2023-03-20T08:48:32.871Z,0.20
2023-03-20T08:53:35.374Z,0.20
2023-03-20T08:58:36.748Z,0.20
2023-03-20T09:03:38.174Z,0.40
2023-03-20T09:08:39.855Z,0.10
2023-03-20T09:13:41.351Z,0.32
2023-03-20T09:18:42.740Z,0.20
2023-03-20T09:23:44.173Z,0.30
2023-03-20T09:28:45.591Z,0.40
2023-03-20T09:33:46.975Z,0.28
2023-03-20T09:38:48.401Z,0.30
2023-03-20T09:44:07.715Z,0.30
2023-03-20T09:49:23.203Z,0.20
2023-03-20T09:54:53.087Z,0.52
2023-03-20T09:59:57.590Z,0.30
2023-03-20T10:04:58.967Z,0.40
2023-03-20T10:10:00.425Z,0.30
2023-03-20T10:15:19.555Z,1.52
2023-03-20T10:20:29.238Z,0.60
2023-03-20T10:25:52.207Z,0.70
2023-03-20T10:31:29.892Z,0.75
2023-03-20T10:36:43.279Z,0.60
2023-03-20T10:41:51.154Z,0.50
2023-03-20T10:46:53.449Z,0.47
2023-03-20T10:51:56.484Z,0.50
2023-03-20T10:56:59.593Z,0.50
2023-03-20T11:02:01.260Z,0.60
2023-03-20T11:07:37.910Z,0.40
2023-03-20T11:12:49.020Z,0.52
2023-03-20T11:17:54.700Z,0.60
2023-03-20T11:28:21.067Z,0.60
2023-03-20T11:33:22.472Z,0.65
2023-03-20T11:38:23.864Z,0.52
2023-03-20T11:43:26.929Z,0.60
2023-03-20T11:48:38.993Z,0.50
2023-03-20T11:53:49.075Z,0.47
2023-03-20T11:59:06.617Z,0.50
2023-03-20T12:04:11.159Z,0.40
2023-03-20T12:09:26.343Z,0.60
2023-03-20T12:14:32.961Z,0.50
2023-03-20T12:19:34.356Z,0.40
2023-03-20T12:24:42.159Z,0.32
2023-03-20T12:29:55.777Z,0.40
2023-03-20T12:35:07.369Z,0.30
2023-03-20T12:40:18.712Z,0.40
2023-03-20T12:45:25.088Z,0.60
2023-03-20T12:50:28.822Z,0.40
2023-03-20T12:55:48.396Z,0.50
2023-03-20T13:01:20.601Z,0.50
2023-03-20T13:06:49.435Z,0.40
2023-03-20T13:12:01.649Z,0.60
2023-03-20T13:17:28.805Z,0.65
2023-03-20T13:22:58.169Z,0.60
2023-03-20T13:28:21.752Z,0.60
2023-03-20T13:33:50.970Z,0.60
2023-03-20T13:38:59.264Z,0.50
2023-03-20T13:44:01.864Z,0.60
2023-03-20T13:49:13.400Z,0.70
2023-03-20T13:54:20.730Z,0.70
2023-03-20T13:59:49.131Z,0.70
2023-03-20T14:04:52.953Z,0.70
2023-03-20T14:09:54.469Z,0.38
2023-03-20T14:14:56.511Z,0.70
2023-03-20T14:19:57.981Z,0.88
2023-03-20T14:25:00.599Z,0.40
2023-03-20T14:30:30.127Z,0.75
2023-03-20T14:35:32.074Z,0.57
2023-03-20T14:40:34.970Z,0.52
2023-03-20T14:45:42.644Z,0.60
2023-03-20T14:50:46.896Z,0.63
2023-03-20T14:55:51.145Z,0.80
2023-03-20T15:00:52.586Z,0.70
2023-03-20T15:05:56.774Z,0.82
2023-03-20T15:10:59.423Z,0.82
2023-03-20T15:16:06.930Z,0.88
2023-03-20T15:21:16.328Z,0.98
2023-03-20T15:26:18.712Z,0.90
2023-03-20T15:31:24.557Z,0.80
2023-03-20T15:36:28.049Z,0.60
2023-03-20T15:41:31.596Z,1.00
2023-03-20T15:46:33.093Z,0.90
2023-03-20T15:51:34.475Z,0.60
2023-03-20T15:56:36.410Z,0.85
2023-03-20T16:01:37.869Z,0.63
2023-03-20T16:06:46.187Z,0.70
2023-03-20T16:11:49.587Z,0.70
2023-03-20T16:16:51.468Z,0.60
2023-03-20T16:22:00.455Z,0.43
2023-03-20T16:27:08.034Z,0.60
2023-03-20T16:32:34.082Z,0.50
2023-03-20T16:37:43.348Z,0.50
2023-03-20T16:42:45.071Z,0.28
2023-03-20T16:47:46.543Z,0.22
2023-03-20T16:52:52.333Z,0.20
2023-03-20T17:03:16.615Z,0.20
2023-03-20T17:08:25.974Z,0.30
2023-03-20T17:13:27.440Z,0.38
2023-03-20T17:18:28.923Z,0.28
2023-03-20T17:23:30.349Z,0.30
2023-03-20T17:28:34.548Z,0.32
2023-03-20T17:33:36.358Z,0.32
2023-03-20T17:38:37.756Z,0.30
2023-03-20T17:43:39.197Z,0.30
2023-03-20T17:48:40.593Z,0.20
2023-03-20T17:53:41.973Z,0.20
2023-03-20T17:58:46.136Z,0.30
2023-03-20T18:03:47.519Z,0.20
2023-03-20T18:08:48.906Z,0.25
2023-03-20T18:13:50.342Z,0.20
2023-03-20T18:18:52.414Z,0.40
2023-03-20T18:23:53.793Z,0.20
2023-03-20T18:28:55.495Z,0.25
2023-03-20T18:33:57.021Z,0.20
2023-03-20T18:38:58.585Z,0.20
2023-03-20T18:44:00.011Z,0.20
2023-03-20T18:49:01.436Z,0.20
2023-03-20T18:54:02.824Z,0.20
2023-03-20T18:59:06.457Z,0.30
2023-03-20T19:04:08.005Z,0.20
2023-03-20T19:09:11.713Z,0.30
2023-03-20T19:14:14.023Z,0.30
2023-03-20T19:19:15.569Z,0.13
2023-03-20T19:24:19.301Z,0.30
2023-03-20T19:29:20.678Z,0.30
2023-03-20T19:35:00.828Z,0.30
2023-03-20T19:39:43.423Z,0.30
2023-03-20T19:44:44.960Z,0.35
2023-03-20T19:49:46.408Z,0.30
2023-03-20T19:55:01.822Z,0.40
2023-03-20T20:05:36.736Z,0.30
2023-03-20T20:10:43.280Z,0.30
2023-03-20T20:15:45.291Z,0.38
2023-03-20T20:21:32.021Z,0.40
2023-03-20T20:26:09.433Z,0.30
2023-03-20T20:31:10.867Z,0.30
2023-03-20T20:37:20.337Z,0.35
2023-03-20T20:41:33.895Z,0.30
2023-03-20T20:46:35.287Z,0.30
2023-03-20T20:51:36.697Z,0.50
2023-03-20T20:56:38.084Z,0.40
2023-03-20T21:01:39.521Z,0.40
2023-03-20T21:07:11.566Z,0.30
2023-03-20T21:12:02.741Z,0.45
2023-03-20T21:17:05.752Z,0.47
2023-03-20T21:22:08.119Z,0.30
2023-03-20T21:27:12.410Z,0.38
2023-03-20T21:32:15.832Z,0.50
2023-03-20T21:42:39.640Z,0.40
2023-03-20T21:54:13.612Z,0.30
2023-03-20T21:59:02.916Z,0.40
2023-03-20T22:04:57.621Z,0.43
2023-03-20T22:31:28.504Z,0.30
2023-03-20T22:36:46.881Z,0.28
2023-03-20T22:46:46.236Z,0.32
2023-03-20T22:52:07.806Z,0.30
2023-03-20T22:57:09.555Z,0.30
2023-03-20T23:02:11.362Z,0.40
2023-03-20T23:07:12.750Z,0.22
2023-03-20T23:12:14.190Z,0.30
2023-03-20T23:17:15.588Z,0.30
2023-03-20T23:22:16.970Z,0.32
2023-03-20T23:27:19.359Z,0.45
2023-03-20T23:32:20.766Z,0.30
2023-03-20T23:37:22.136Z,0.40
2023-03-20T23:42:30.375Z,0.45
2023-03-20T23:47:43.860Z,0.40
2023-03-20T23:52:57.218Z,0.30
2023-03-20T23:58:02.695Z,0.30
